Time;durP1;ratioP1;P1;durP2;ratioP2;P2;SDS_P1;SDS_P2;PMS_P1;PMS_P2;Temp;Humidity;BMP_temperature;BMP_pressure;BME280_temperature;BME280_humidity;BME280_pressure;Samples;Min_cycle;Max_cycle;Signal;HPM_P1;HPM_P2
2022/05/16 00:01:13;;;;;;;9.87;5.20;;;7.60;99.90;6.80;100814;;;;550272;257;24162;-78
2022/05/16 00:03:41;;;;;;;11.37;5.20;;;7.60;99.90;6.80;100820;;;;548363;257;24130;-80
2022/05/16 00:06:10;;;;;;;14.33;4.90;;;7.60;99.90;6.70;100808;;;;560359;252;24133;-79
2022/05/16 00:08:38;;;;;;;12.67;5.37;;;7.60;99.90;6.70;100809;;;;557571;252;24188;-76
2022/05/16 00:11:06;;;;;;;15.67;7.40;;;7.60;99.90;6.80;100807;;;;556752;252;35464;-77
2022/05/16 00:13:35;;;;;;;13.30;7.32;;;7.60;99.90;6.80;100812;;;;556651;252;35507;-76
2022/05/16 00:16:07;;;;;;;17.40;8.35;;;7.60;99.90;6.80;100807;;;;556574;252;35489;-76
2022/05/16 00:18:33;;;;;;;12.63;6.17;;;7.60;99.90;6.80;100814;;;;569479;252;24133;-78
2022/05/16 00:21:04;;;;;;;13.47;5.20;;;7.60;99.90;6.80;100800;;;;562134;252;24128;-81
2022/05/16 00:23:29;;;;;;;14.27;4.90;;;7.60;99.90;6.80;100806;;;;587644;245;24115;-81
2022/05/16 00:25:58;;;;;;;8.00;4.40;;;7.60;99.90;6.80;100804;;;;566981;250;24196;-80
2022/05/16 00:28:26;;;;;;;12.10;4.97;;;7.60;99.90;6.80;100805;;;;576305;244;24126;-80
2022/05/16 00:30:54;;;;;;;9.07;4.43;;;7.60;99.90;6.80;100813;;;;568267;250;24090;-80
2022/05/16 00:33:22;;;;;;;8.50;5.00;;;7.60;99.90;6.70;100809;;;;576802;244;24076;-81
2022/05/16 00:35:50;;;;;;;6.10;4.23;;;7.60;99.90;6.70;100812;;;;567343;250;24047;-81
2022/05/16 00:38:18;;;;;;;6.03;3.53;;;7.50;99.90;6.70;100823;;;;576182;245;24082;-80
2022/05/16 00:40:45;;;;;;;7.23;4.63;;;7.50;99.90;6.70;100813;;;;567109;250;24118;-81
2022/05/16 00:43:13;;;;;;;12.67;4.60;;;7.50;99.90;6.70;100818;;;;576376;245;24138;-81
2022/05/16 00:45:41;;;;;;;6.83;4.47;;;7.50;99.90;6.70;100812;;;;567496;250;24125;-81
2022/05/16 00:48:09;;;;;;;6.90;4.17;;;7.50;99.90;6.70;100809;;;;576082;245;24092;-81
2022/05/16 00:50:40;;;;;;;12.77;4.53;;;7.50;99.90;6.70;100816;;;;566913;249;24180;-81
2022/05/16 00:53:05;;;;;;;7.00;3.80;;;7.50;99.90;6.70;100819;;;;575421;245;24094;-79
2022/05/16 00:55:33;;;;;;;11.03;3.97;;;7.50;99.90;6.70;100822;;;;567454;250;24108;-80
2022/05/16 00:58:02;;;;;;;9.60;4.53;;;7.50;99.90;6.70;100818;;;;575357;245;24081;-80
2022/05/16 01:00:32;;;;;;;9.93;5.33;;;7.50;99.90;6.70;100811;;;;566499;250;24137;-81
2022/05/16 01:05:46;;;;;;;5.83;4.13;;;7.40;99.90;6.60;100818;;;;575047;248;24124;-81
2022/05/16 01:08:17;;;;;;;7.43;3.63;;;7.40;99.90;6.40;100814;;;;574903;245;24101;-81
2022/05/16 01:10:45;;;;;;;12.40;4.97;;;7.20;99.90;6.40;100819;;;;566773;250;24094;-77
2022/05/16 01:13:16;;;;;;;8.40;4.70;;;7.20;99.90;6.30;100814;;;;574621;245;24087;-78
2022/05/16 01:15:44;;;;;;;8.67;4.33;;;7.20;99.90;6.30;100814;;;;566136;250;24093;-82
2022/05/16 01:18:12;;;;;;;6.60;4.83;;;7.20;99.90;6.30;100816;;;;575126;245;24068;-80
2022/05/16 01:21:07;;;;;;;12.83;4.77;;;7.10;99.90;6.30;100811;;;;566212;250;24128;-79
2022/05/16 01:23:35;;;;;;;14.53;7.20;;;7.10;99.90;6.30;100820;;;;569714;245;46032;-82
2022/05/16 01:26:03;;;;;;;14.30;7.82;;;7.10;99.90;6.20;100820;;;;561139;250;46294;-81
2022/05/16 01:28:31;;;;;;;11.67;6.23;;;7.10;99.90;6.10;100812;;;;575011;245;24072;-81
2022/05/16 01:30:59;;;;;;;11.90;5.33;;;7.00;99.90;6.10;100807;;;;565915;249;24117;-80
2022/05/16 01:33:27;;;;;;;15.40;5.23;;;7.00;99.90;6.10;100814;;;;575013;245;24124;-81
2022/05/16 01:35:58;;;;;;;9.83;5.47;;;7.00;99.90;6.10;100807;;;;566070;250;24147;-80
2022/05/16 01:38:23;;;;;;;12.17;5.20;;;6.90;99.90;6.00;100810;;;;575691;245;24069;-78
2022/05/16 01:40:55;;;;;;;12.90;4.57;;;6.90;99.90;6.00;100807;;;;567677;249;24099;-76
2022/05/16 01:43:20;;;;;;;10.07;5.00;;;6.80;99.90;5.90;100802;;;;576602;244;24098;-77
2022/05/16 01:45:50;;;;;;;9.90;5.23;;;6.80;99.90;5.90;100809;;;;576198;249;24083;-78
2022/05/16 01:48:15;;;;;;;8.83;4.43;;;6.80;99.90;5.90;100807;;;;579622;244;24131;-76
2022/05/16 01:50:44;;;;;;;7.00;4.30;;;6.70;99.90;5.80;100798;;;;573705;247;24225;-80
2022/05/16 01:53:12;;;;;;;7.47;4.60;;;6.70;99.90;5.90;100813;;;;572375;247;24078;-80
2022/05/16 01:55:41;;;;;;;11.40;4.13;;;6.70;99.90;5.80;100799;;;;573782;247;24062;-78
2022/05/16 01:58:09;;;;;;;12.37;4.70;;;6.70;99.90;5.90;100800;;;;573588;247;25223;-78
2022/05/16 02:00:40;;;;;;;10.23;4.20;;;6.70;99.90;5.90;100802;;;;573353;247;25249;-77
2022/05/16 02:03:08;;;;;;;7.10;3.30;;;6.70;99.90;5.80;100801;;;;573346;247;24095;-79
2022/05/16 02:05:36;;;;;;;7.80;4.73;;;6.70;99.90;5.80;100797;;;;573354;247;24088;-77
2022/05/16 02:08:04;;;;;;;11.13;4.10;;;6.70;99.90;5.80;100797;;;;573474;245;24110;-80
2022/05/16 02:10:33;;;;;;;5.93;3.60;;;6.60;99.90;5.80;100798;;;;573084;247;24094;-81
2022/05/16 02:13:03;;;;;;;5.40;4.03;;;6.60;99.90;5.80;100796;;;;573372;247;24145;-80
2022/05/16 02:15:27;;;;;;;7.90;3.80;;;6.60;99.90;5.70;100798;;;;577251;247;24081;-81
2022/05/16 02:17:56;;;;;;;12.10;4.50;;;6.60;99.90;5.70;100799;;;;572834;247;24093;-79
2022/05/16 02:20:25;;;;;;;8.90;3.80;;;6.60;99.90;5.70;100798;;;;573040;247;24067;-80
2022/05/16 02:25:38;;;;;;;8.37;3.70;;;6.50;99.90;5.60;100800;;;;572868;247;24075;-81
2022/05/16 02:28:07;;;;;;;11.83;3.63;;;6.50;99.90;5.60;100804;;;;581346;247;24093;-82
2022/05/16 02:30:34;;;;;;;9.43;3.00;;;6.50;99.90;5.60;100805;;;;572630;247;24111;-81
2022/05/16 02:33:03;;;;;;;14.40;4.50;;;6.50;99.90;5.70;100808;;;;572593;247;24088;-81
2022/05/16 02:35:31;;;;;;;11.43;3.87;;;6.50;99.90;5.70;100797;;;;581408;247;24087;-78
2022/05/16 02:37:59;;;;;;;6.13;3.57;;;6.50;99.90;5.70;100801;;;;572685;247;24074;-77
2022/05/16 02:40:28;;;;;;;7.77;3.73;;;6.50;99.90;5.60;100801;;;;573264;247;24147;-77
2022/05/16 02:42:56;;;;;;;6.70;3.50;;;6.50;99.90;5.70;100797;;;;577128;247;24083;-78
2022/05/16 02:45:27;;;;;;;8.67;4.30;;;6.50;99.90;5.70;100806;;;;573049;247;24171;-78
2022/05/16 02:47:52;;;;;;;7.03;3.77;;;6.50;99.90;5.70;100799;;;;576947;247;24075;-77
2022/05/16 02:50:23;;;;;;;8.90;3.97;;;6.50;99.90;5.70;100802;;;;571990;247;24075;-77
2022/05/16 02:52:47;;;;;;;8.87;3.80;;;6.50;99.90;5.70;100802;;;;573170;246;24071;-78
2022/05/16 02:55:19;;;;;;;9.33;3.83;;;6.50;99.90;5.70;100800;;;;573924;246;24059;-78
2022/05/16 02:57:46;;;;;;;6.90;3.83;;;6.50;99.90;5.70;100805;;;;573419;247;24077;-77
2022/05/16 03:00:12;;;;;;;10.67;3.93;;;6.50;99.90;5.70;100797;;;;578075;245;24081;-78
2022/05/16 03:02:43;;;;;;;7.67;3.30;;;6.50;99.90;5.70;100803;;;;577743;247;24091;-78
2022/05/16 03:05:07;;;;;;;9.90;3.60;;;6.50;99.90;5.70;100812;;;;572392;247;24092;-78
2022/05/16 03:07:35;;;;;;;4.83;3.10;;;6.50;99.90;5.70;100801;;;;572553;247;24065;-78
2022/05/16 03:10:03;;;;;;;9.63;3.90;;;6.60;99.90;5.70;100806;;;;573014;247;24103;-77
2022/05/16 03:12:31;;;;;;;14.20;4.00;;;6.60;99.90;5.80;100803;;;;582016;243;25174;-76
2022/05/16 03:14:59;;;;;;;7.60;4.20;;;6.60;99.90;5.80;100812;;;;572492;247;24098;-78
2022/05/16 03:17:27;;;;;;;13.33;4.17;;;6.70;99.90;5.90;100818;;;;573611;247;24059;-80
2022/05/16 03:19:55;;;;;;;12.23;4.70;;;6.70;99.90;5.90;100821;;;;573947;247;24080;-78
2022/05/16 03:22:23;;;;;;;11.63;4.40;;;6.80;99.90;6.00;100813;;;;573351;247;24082;-80
2022/05/16 03:24:51;;;;;;;9.20;4.27;;;6.90;99.90;6.10;100807;;;;572838;247;24101;-75
2022/05/16 03:27:19;;;;;;;10.87;4.10;;;6.90;99.90;6.20;100810;;;;572634;247;24111;-76
2022/05/16 03:29:48;;;;;;;10.40;4.37;;;7.00;99.90;6.30;100811;;;;572596;247;24074;-77
2022/05/16 03:32:15;;;;;;;8.13;3.87;;;7.10;99.90;6.40;100809;;;;572513;247;24079;-76
2022/05/16 03:34:43;;;;;;;7.03;4.17;;;7.20;99.90;6.50;100812;;;;572606;247;24063;-80
2022/05/16 03:37:11;;;;;;;10.70;4.40;;;7.30;99.90;6.60;100821;;;;572411;247;24141;-78
2022/05/16 03:42:25;;;;;;;7.10;4.23;;;7.70;99.90;8.00;100818;;;;572460;247;24150;-76
2022/05/16 03:44:53;;;;;;;9.17;3.83;;;8.70;99.90;9.40;100827;;;;572441;247;24064;-77
2022/05/16 03:47:21;;;;;;;11.10;4.07;;;9.90;99.90;10.60;100826;;;;572451;247;24114;-78
2022/05/16 03:49:49;;;;;;;8.50;3.17;;;12.20;99.90;11.60;100823;;;;571986;247;24110;-77
2022/05/16 03:52:22;;;;;;;7.33;2.67;;;13.30;99.90;12.60;100822;;;;572230;247;24085;-76
2022/05/16 03:54:47;;;;;;;5.97;2.87;;;14.40;99.90;13.60;100814;;;;572250;247;25142;-75
2022/05/16 03:57:15;;;;;;;5.27;2.47;;;14.40;99.90;14.50;100816;;;;572476;247;24071;-78
2022/05/16 03:59:43;;;;;;;7.47;3.00;;;15.40;99.90;15.40;100823;;;;567607;247;45999;-78
2022/05/16 04:02:11;;;;;;;9.20;3.30;;;16.20;99.90;16.10;100822;;;;572467;247;24056;-78
2022/05/16 04:04:38;;;;;;;5.73;2.77;;;17.10;99.90;16.80;100821;;;;573718;246;24102;-76
2022/05/16 04:07:06;;;;;;;9.33;2.87;;;17.80;99.90;17.50;100817;;;;574014;246;24094;-77
2022/05/16 04:09:34;;;;;;;5.90;3.10;;;18.60;99.90;18.20;100819;;;;573851;247;24191;-78
2022/05/16 04:12:05;;;;;;;8.70;3.20;;;19.20;99.90;19.00;100823;;;;574060;247;24107;-80
2022/05/16 04:14:31;;;;;;;7.23;3.10;;;20.80;96.30;19.60;100829;;;;573211;247;23105;-75
2022/05/16 04:17:00;;;;;;;6.80;2.60;;;20.70;96.30;20.30;100828;;;;572965;247;24062;-77
2022/05/16 04:19:30;;;;;;;4.33;2.63;;;22.10;91.50;21.00;100832;;;;572901;247;24088;-77
2022/05/16 04:21:58;;;;;;;7.67;3.10;;;22.10;91.50;21.90;100834;;;;572689;247;24111;-78
2022/05/16 04:24:26;;;;;;;7.27;3.23;;;23.00;85.00;22.40;100846;;;;572549;247;24079;-79
2022/05/16 04:26:54;;;;;;;4.90;2.53;;;23.50;79.50;22.90;100837;;;;572545;247;24091;-77
2022/05/16 04:29:25;;;;;;;4.77;3.17;;;24.70;73.40;23.50;100838;;;;572580;247;24076;-78
2022/05/16 04:31:51;;;;;;;5.70;2.97;;;25.30;69.60;24.20;100836;;;;572674;247;23088;-81
2022/05/16 04:34:23;;;;;;;4.97;2.77;;;25.30;69.60;24.90;100844;;;;572840;247;23069;-79
2022/05/16 04:36:47;;;;;;;5.03;2.57;;;26.10;65.50;25.30;100844;;;;577387;247;23117;-77
2022/05/16 04:39:15;;;;;;;8.23;3.10;;;26.50;61.20;25.80;100839;;;;572532;247;23080;-75
2022/05/16 04:44:36;;;;;;;3.60;2.60;;;27.70;58.90;27.30;100847;;;;582093;246;24061;-80
2022/05/16 04:46:58;;;;;;;7.13;2.70;;;28.50;56.00;27.80;100851;;;;581969;247;23096;-81
2022/05/16 04:49:25;;;;;;;3.42;1.87;;;29.10;54.80;28.60;100854;;;;572944;242;23117;-81
2022/05/16 04:51:53;;;;;;;6.62;2.60;;;29.80;52.90;29.20;100866;;;;572901;247;23113;-79
2022/05/16 04:54:21;;;;;;;4.65;2.60;;;30.40;51.00;29.80;100865;;;;572310;247;23081;-77
2022/05/16 04:56:51;;;;;;;5.93;2.65;;;31.00;50.10;30.50;100865;;;;572221;247;24164;-78
2022/05/16 04:59:17;;;;;;;3.90;2.58;;;31.70;48.80;31.10;100866;;;;571768;247;23143;-78
2022/05/16 05:01:45;;;;;;;7.05;2.20;;;32.30;47.50;31.90;100866;;;;581487;247;23110;-78
2022/05/16 05:04:17;;;;;;;7.37;2.37;;;32.90;45.20;32.20;100868;;;;573196;247;23130;-82
2022/05/16 05:06:41;;;;;;;5.37;2.42;;;33.30;44.70;32.40;100876;;;;573244;247;23100;-82
2022/05/16 05:09:12;;;;;;;3.47;1.85;;;33.60;43.30;32.20;100877;;;;559736;251;23134;-80
2022/05/16 05:14:32;;;;;;;4.03;2.03;;;32.30;43.00;29.30;100873;;;;571219;246;23117;-77
2022/05/16 05:17:00;;;;;;;3.42;1.92;;;30.90;44.80;28.80;100872;;;;568572;249;24093;-78
2022/05/16 05:19:28;;;;;;;6.40;1.98;;;30.10;46.40;29.80;100874;;;;576601;245;23097;-80
2022/05/16 05:21:56;;;;;;;4.20;2.20;;;30.60;47.10;30.90;100878;;;;568581;249;24112;-78
2022/05/16 05:24:26;;;;;;;4.93;1.98;;;31.50;45.80;30.20;100880;;;;571473;250;23143;-79
2022/05/16 05:26:51;;;;;;;4.45;2.05;;;31.20;44.30;28.80;100880;;;;567760;249;23151;-78
2022/05/16 05:29:23;;;;;;;4.35;1.98;;;30.10;45.60;28.00;100877;;;;576603;243;23114;-78
2022/05/16 05:31:47;;;;;;;4.37;1.80;;;29.10;46.80;27.80;100882;;;;562320;251;23160;-80
2022/05/16 05:34:16;;;;;;;3.33;1.70;;;27.90;48.30;26.80;100887;;;;567885;249;23136;-79
2022/05/16 05:36:45;;;;;;;3.90;2.00;;;26.80;49.30;25.60;100882;;;;576155;248;23148;-77
2022/05/16 05:39:16;;;;;;;11.53;2.30;;;26.80;49.30;24.50;100887;;;;552200;255;24129;-78
2022/05/16 05:41:43;;;;;;;10.70;2.37;;;25.70;50.80;23.50;100880;;;;562323;251;24171;-77
2022/05/16 05:44:11;;;;;;;7.80;3.57;;;24.50;52.40;23.10;100880;;;;568210;249;24061;-80
2022/05/16 05:46:39;;;;;;;5.50;2.40;;;23.90;54.40;24.50;100881;;;;576818;248;24087;-77
2022/05/16 05:49:10;;;;;;;3.33;2.13;;;24.70;54.20;24.30;100882;;;;569442;248;23106;-76
2022/05/16 05:51:35;;;;;;;6.17;1.77;;;24.30;53.60;23.50;100881;;;;563251;250;24128;-77
2022/05/16 05:54:05;;;;;;;4.20;2.07;;;23.50;54.90;22.70;100879;;;;567871;249;23106;-77
2022/05/16 05:56:33;;;;;;;4.97;2.63;;;23.40;54.80;21.90;100876;;;;576734;245;24103;-79
2022/05/16 05:59:02;;;;;;;5.03;2.20;;;22.70;56.40;21.30;100874;;;;576330;248;24111;-78
2022/05/16 06:01:31;;;;;;;5.63;2.17;;;21.60;59.40;20.80;100874;;;;581018;246;24077;-78
2022/05/16 06:04:02;;;;;;;10.07;2.73;;;21.50;59.40;20.40;100874;;;;572700;247;24112;-77
2022/05/16 06:06:30;;;;;;;6.77;2.70;;;21.10;60.50;20.10;100863;;;;560831;250;24134;-79
2022/05/16 06:08:56;;;;;;;6.77;2.30;;;20.70;62.30;19.70;100878;;;;561232;252;23175;-82
2022/05/16 06:11:28;;;;;;;6.93;2.10;;;20.00;65.30;19.50;100874;;;;567566;252;24160;-81
2022/05/16 06:13:56;;;;;;;6.43;2.20;;;20.00;65.70;19.50;100867;;;;572624;246;24072;-79
2022/05/16 06:16:21;;;;;;;4.67;2.50;;;19.90;65.70;19.40;100865;;;;570078;251;24128;-81
2022/05/16 06:18:49;;;;;;;4.27;2.07;;;19.80;66.20;19.10;100863;;;;574857;247;23135;-80
2022/05/16 06:21:17;;;;;;;8.10;2.57;;;19.70;66.70;18.90;100862;;;;564260;252;24113;-80
2022/05/16 06:23:49;;;;;;;10.87;2.90;;;19.50;67.40;18.70;100860;;;;572364;247;24111;-81
2022/05/16 06:26:13;;;;;;;7.43;2.80;;;19.20;68.30;18.50;100859;;;;562457;250;24137;-81
2022/05/16 06:28:44;;;;;;;6.73;2.70;;;19.10;69.40;18.30;100864;;;;573785;246;24069;-81
2022/05/16 06:31:09;;;;;;;4.77;2.13;;;18.90;70.00;18.20;100857;;;;563018;250;24210;-80
2022/05/16 06:33:37;;;;;;;6.47;2.90;;;18.70;70.90;18.00;100859;;;;563199;251;24179;-81
2022/05/16 06:36:06;;;;;;;8.73;2.67;;;18.40;72.30;17.90;100863;;;;573887;247;24160;-81
2022/05/16 06:38:34;;;;;;;6.57;2.43;;;18.40;73.00;17.80;100858;;;;562918;251;24117;-80
2022/05/16 06:41:03;;;;;;;12.37;2.60;;;18.40;73.50;17.80;100856;;;;573426;247;24130;-80
2022/05/16 06:43:34;;;;;;;9.17;2.47;;;18.30;73.40;17.80;100855;;;;564431;251;24208;-81
2022/05/16 06:46:03;;;;;;;9.97;2.60;;;18.40;74.10;17.80;100860;;;;562183;251;24145;-79
2022/05/16 06:48:28;;;;;;;5.90;2.40;;;18.30;74.00;17.90;100851;;;;570684;247;24119;-80
2022/05/16 06:50:56;;;;;;;6.53;2.73;;;18.40;73.90;17.80;100855;;;;571121;247;24108;-79
2022/05/16 06:53:24;;;;;;;3.40;2.30;;;18.40;74.10;17.90;100862;;;;592208;242;24055;-79
2022/05/16 06:55:52;;;;;;;6.37;2.00;;;18.40;74.60;18.00;100854;;;;593324;237;24037;-78
2022/05/16 06:58:20;;;;;;;4.80;2.50;;;18.60;74.60;18.10;100858;;;;596158;237;24062;-81
2022/05/16 07:00:50;;;;;;;9.87;2.90;;;18.60;74.60;18.10;100859;;;;594191;237;24028;-80
2022/05/16 07:03:15;;;;;;;8.57;2.70;;;18.70;75.10;18.20;100865;;;;581048;245;24082;-80
2022/05/16 07:05:44;;;;;;;6.63;3.10;;;18.70;76.10;18.30;100860;;;;579352;244;24094;-81
2022/05/16 07:08:12;;;;;;;7.23;2.63;;;19.00;75.60;18.50;100858;;;;579421;244;24026;-80
2022/05/16 07:10:41;;;;;;;10.17;3.80;;;19.20;75.20;18.70;100861;;;;577728;244;24062;-80
2022/05/16 07:13:10;;;;;;;11.43;3.43;;;19.40;74.50;18.80;100866;;;;577672;244;26233;-80
2022/05/16 07:15:37;;;;;;;15.50;3.27;;;19.30;74.40;19.00;100873;;;;579328;244;23042;-80
2022/05/16 07:18:08;;;;;;;8.83;3.10;;;19.60;73.80;19.20;100874;;;;577564;244;23063;-81
2022/05/16 07:20:36;;;;;;;12.33;3.10;;;19.80;71.80;19.30;100876;;;;579427;244;24071;-79
2022/05/16 07:23:01;;;;;;;10.67;2.67;;;19.90;70.60;19.40;100877;;;;577495;244;24066;-80
2022/05/16 07:25:32;;;;;;;8.13;2.70;;;20.10;69.70;20.50;100876;;;;577611;244;24034;-82
2022/05/16 07:28:00;;;;;;;8.33;3.17;;;20.80;68.40;20.90;100875;;;;580125;245;24094;-80
2022/05/16 07:30:30;;;;;;;5.57;2.40;;;21.40;65.90;23.30;100878;;;;565545;250;24138;-81
2022/05/16 07:32:58;;;;;;;13.82;3.80;;;23.20;63.50;26.60;100887;;;;572162;245;46139;-79
2022/05/16 07:35:26;;;;;;;9.17;2.47;;;26.20;57.40;29.20;100894;;;;565484;249;23128;-81
2022/05/16 07:37:58;;;;;;;8.23;3.15;;;28.90;52.50;30.40;100895;;;;565958;249;23119;-80
2022/05/16 07:40:26;;;;;;;13.50;3.10;;;30.70;48.10;30.40;100898;;;;563706;250;24105;-80
2022/05/16 07:42:56;;;;;;;12.73;2.72;;;31.20;45.90;29.70;100894;;;;570026;249;23127;-80
2022/05/16 07:45:22;;;;;;;7.93;2.03;;;30.70;46.30;29.80;100898;;;;563079;249;24127;-77
2022/05/16 07:47:51;;;;;;;7.50;2.70;;;30.60;46.20;30.30;100896;;;;576684;245;23088;-81
2022/05/16 07:50:19;;;;;;;8.40;2.62;;;31.10;44.90;30.70;100904;;;;581049;243;23121;-76
2022/05/16 07:52:48;;;;;;;5.78;2.12;;;31.30;45.40;31.70;100899;;;;572237;247;24119;-82
2022/05/16 07:55:15;;;;;;;6.22;2.40;;;32.20;44.10;33.20;100906;;;;572329;247;23152;-81
2022/05/16 07:57:46;;;;;;;5.97;2.53;;;33.60;43.00;32.90;100901;;;;571152;245;23204;-78
2022/05/16 08:00:11;;;;;;;17.23;2.50;;;33.80;41.90;33.10;100902;;;;562220;250;24190;-80
2022/05/16 08:02:39;;;;;;;5.65;1.50;;;33.80;41.60;34.80;100903;;;;559090;251;23158;-83
2022/05/16 08:05:10;;;;;;;2.62;1.30;;;35.80;37.90;35.30;100906;;;;562285;247;23159;-80
2022/05/16 08:10:29;;;;;;;3.87;1.60;;;35.70;37.60;35.80;100908;;;;571801;247;23097;-78
2022/05/16 08:12:52;;;;;;;5.90;2.10;;;36.20;36.90;36.10;100912;;;;569824;251;23223;-79
2022/05/16 08:15:20;;;;;;;27.17;5.60;;;36.50;37.30;37.50;100915;;;;571788;247;23099;-79
2022/05/16 08:17:49;;;;;;;29.17;6.07;;;39.70;35.80;39.40;100918;;;;560253;252;23192;-79
2022/05/16 08:20:17;;;;;;;15.23;4.07;;;40.70;34.30;40.30;100912;;;;571772;247;23107;-79
2022/05/16 08:22:46;;;;;;;3.85;1.90;;;41.60;33.40;41.20;100918;;;;571952;247;23141;-79
2022/05/16 08:25:17;;;;;;;3.87;1.80;;;42.30;32.60;41.80;100914;;;;571878;247;23078;-79
2022/05/16 08:27:45;;;;;;;7.00;2.35;;;42.30;32.60;42.40;100917;;;;573667;247;23112;-82
2022/05/16 08:30:13;;;;;;;4.12;2.20;;;42.90;32.20;43.20;100913;;;;569453;248;23094;-81
2022/05/16 08:32:42;;;;;;;6.55;2.05;;;43.70;32.00;43.80;100918;;;;568836;248;23138;-82
2022/05/16 08:35:09;;;;;;;3.97;2.12;;;44.40;30.50;44.20;100913;;;;556068;254;23184;-80
2022/05/16 08:40:24;;;;;;;4.03;2.10;;;45.70;29.70;45.10;100927;;;;568917;248;23095;-79
2022/05/16 08:42:54;;;;;;;15.30;2.40;;;45.70;29.70;46.00;100932;;;;568710;248;23135;-81
2022/05/16 08:45:38;;;;;;;9.75;4.15;;;46.50;29.20;46.20;100920;;;;568808;248;23123;-80
2022/05/16 08:48:24;;;;;;;8.40;2.78;;;47.00;28.90;44.40;100930;;;;546244;259;24219;-78
2022/05/16 08:51:04;;;;;;;3.17;2.20;;;46.00;28.80;43.60;100928;;;;565406;246;46195;-81
2022/05/16 08:53:34;;;;;;;12.27;2.45;;;45.00;29.60;42.60;100928;;;;572805;246;23172;-83
2022/05/16 08:56:05;;;;;;;9.90;2.10;;;44.00;29.70;40.10;100925;;;;562440;251;23172;-82
2022/05/16 08:58:48;;;;;;;7.12;1.77;;;42.10;30.30;37.80;100930;;;;572621;247;23149;-79
2022/05/16 09:01:27;;;;;;;6.18;2.10;;;39.80;31.60;35.20;100927;;;;572012;247;24150;-79
2022/05/16 09:03:55;;;;;;;4.15;1.75;;;37.10;33.20;35.00;100915;;;;572151;247;24122;-80
2022/05/16 09:06:38;;;;;;;3.08;1.58;;;35.70;35.40;36.80;100916;;;;562443;251;24138;-80
2022/05/16 09:09:18;;;;;;;2.72;1.55;;;38.60;33.30;38.40;100917;;;;573285;247;23123;-80
2022/05/16 09:11:59;;;;;;;3.60;1.50;;;38.00;32.90;37.10;100920;;;;571686;247;23113;-79
2022/05/16 09:14:54;;;;;;;3.78;2.05;;;36.50;34.10;35.20;100921;;;;571774;247;23094;-80
2022/05/16 09:17:56;;;;;;;3.10;1.80;;;36.50;34.10;33.50;100921;;;;562075;251;24192;-80
2022/05/16 09:20:53;;;;;;;3.58;2.12;;;34.80;35.30;32.50;100921;;;;572057;247;23121;-80
2022/05/16 09:23:50;;;;;;;1.52;1.02;;;33.40;36.40;31.20;100922;;;;554663;256;23158;-81
2022/05/16 09:26:24;;;;;;;5.62;1.77;;;31.20;38.50;30.20;100931;;;;567886;247;35014;-79
2022/05/16 09:28:57;;;;;;;4.10;1.77;;;31.10;38.50;30.40;100925;;;;555169;255;24127;-77
2022/05/16 09:31:31;;;;;;;3.30;1.73;;;31.00;39.20;30.20;100920;;;;573216;245;23092;-76
2022/05/16 09:33:59;;;;;;;2.42;1.50;;;30.80;39.10;29.50;100919;;;;565302;250;23142;-78
2022/05/16 09:36:27;;;;;;;4.40;1.50;;;30.30;40.10;29.20;100917;;;;581170;245;23134;-79
2022/05/16 09:38:55;;;;;;;2.30;1.62;;;29.80;41.20;31.50;100922;;;;559895;252;23173;-80
2022/05/16 09:41:47;;;;;;;3.17;1.17;;;31.40;40.90;32.90;100924;;;;567632;247;23137;-78
2022/05/16 09:44:33;;;;;;;3.55;1.37;;;33.10;38.30;34.10;100927;;;;570277;247;23154;-82
2022/05/16 09:47:21;;;;;;;4.28;1.80;;;34.50;36.50;33.00;100926;;;;572308;247;23071;-79
2022/05/16 09:50:06;;;;;;;2.97;1.40;;;34.10;36.20;31.50;100923;;;;571932;247;23208;-78
2022/05/16 09:52:42;;;;;;;5.45;1.60;;;32.80;37.60;30.30;100931;;;;577276;244;23102;-80
2022/05/16 09:55:10;;;;;;;1.60;1.45;;;31.50;38.30;28.70;100938;;;;559922;252;23194;-80
2022/05/16 09:57:38;;;;;;;13.40;2.92;;;30.00;39.70;27.30;100937;;;;560220;252;23191;-79
2022/05/16 10:00:40;;;;;;;8.85;1.98;;;28.50;43.20;26.30;100930;;;;559734;252;23202;-79
2022/05/16 10:03:30;;;;;;;5.47;1.97;;;27.30;44.10;26.50;100933;;;;561605;251;24166;-81
2022/05/16 10:06:01;;;;;;;3.00;1.80;;;27.00;45.50;26.50;100920;;;;570009;250;23175;-81
2022/05/16 10:08:26;;;;;;;3.20;1.60;;;27.00;45.40;26.10;100922;;;;569058;246;23093;-80
2022/05/16 10:10:54;;;;;;;6.03;1.53;;;26.70;45.20;25.50;100922;;;;569372;252;23189;-82
2022/05/16 10:13:22;;;;;;;2.33;1.80;;;26.20;45.90;24.90;100926;;;;560747;252;23184;-81
2022/05/16 10:15:50;;;;;;;2.53;1.50;;;25.70;46.70;24.40;100929;;;;571832;247;23138;-81
2022/05/16 10:18:18;;;;;;;5.57;1.80;;;25.10;47.60;23.80;100922;;;;582696;242;24130;-77
2022/05/16 10:20:46;;;;;;;6.43;1.53;;;24.60;47.70;23.20;100927;;;;582303;242;24048;-79
2022/05/16 10:23:25;;;;;;;7.67;3.03;;;24.00;49.20;23.00;100921;;;;581849;242;24089;-79
2022/05/16 10:25:54;;;;;;;4.00;2.00;;;23.60;50.60;23.70;100918;;;;579358;244;24073;-78
2022/05/16 10:28:21;;;;;;;6.33;1.77;;;24.30;50.00;24.60;100914;;;;579367;244;24045;-80
2022/05/16 10:33:35;;;;;;;5.60;2.80;;;27.90;45.00;27.20;100914;;;;579410;244;23139;-80
2022/05/16 10:36:07;;;;;;;3.03;2.00;;;28.30;44.90;27.40;100924;;;;588025;243;23058;-77
2022/05/16 10:38:37;;;;;;;3.57;2.13;;;28.20;44.90;27.30;100916;;;;577422;245;23103;-80
2022/05/16 10:41:05;;;;;;;8.30;2.50;;;28.10;45.70;26.90;100929;;;;577110;245;23141;-80
2022/05/16 10:44:16;;;;;;;6.53;2.87;;;27.60;46.70;26.50;100925;;;;568283;248;23151;-80
2022/05/16 10:46:44;;;;;;;5.63;2.20;;;27.10;47.00;25.70;100926;;;;560559;250;23138;-81
2022/05/16 10:49:21;;;;;;;4.03;2.00;;;26.30;47.80;25.00;100926;;;;580575;247;23075;-80
2022/05/16 10:51:55;;;;;;;4.03;2.50;;;25.60;49.00;24.10;100924;;;;570773;250;23126;-81
2022/05/16 10:54:23;;;;;;;5.07;2.53;;;24.80;50.10;23.10;100920;;;;566441;247;23148;-81
2022/05/16 10:57:04;;;;;;;5.17;2.17;;;23.90;51.60;22.40;100912;;;;570098;249;24179;-82
2022/05/16 10:59:52;;;;;;;7.23;2.73;;;23.20;53.00;21.90;100907;;;;580458;247;24121;-81
2022/05/16 11:03:07;;;;;;;4.50;2.40;;;22.00;55.90;21.50;100905;;;;562648;247;24139;-80
2022/05/16 11:06:08;;;;;;;4.87;2.37;;;22.00;55.90;20.90;100915;;;;558373;251;24107;-81
2022/05/16 11:09:19;;;;;;;5.80;2.83;;;21.50;57.30;20.30;100910;;;;570086;251;23118;-79
2022/05/16 11:11:50;;;;;;;5.00;2.63;;;21.00;59.10;19.70;100906;;;;565485;254;24154;-77
2022/05/16 11:14:49;;;;;;;4.97;2.43;;;20.40;60.70;19.30;100897;;;;554830;251;24166;-79
2022/05/16 11:17:32;;;;;;;5.03;2.03;;;20.00;62.40;18.90;100893;;;;571424;247;24120;-79
2022/05/16 11:20:05;;;;;;;8.47;2.87;;;19.60;64.10;18.70;100894;;;;570986;247;24100;-81
2022/05/16 11:22:39;;;;;;;3.30;2.10;;;19.10;66.40;18.60;100903;;;;570387;251;24122;-77
2022/05/16 11:25:34;;;;;;;4.03;2.00;;;19.10;66.40;18.50;100889;;;;561741;251;24102;-78
2022/05/16 11:28:07;;;;;;;5.27;2.10;;;19.00;67.10;18.40;100896;;;;561253;251;24150;-77
2022/05/16 11:30:57;;;;;;;3.43;2.33;;;18.90;67.30;18.30;100900;;;;561591;251;24101;-77
2022/05/16 11:33:47;;;;;;;3.90;2.30;;;18.70;68.80;18.20;100912;;;;571977;247;24084;-77
2022/05/16 11:36:32;;;;;;;10.63;2.23;;;18.70;68.80;18.00;100901;;;;579451;247;24100;-81
2022/05/16 11:39:12;;;;;;;9.23;2.57;;;18.60;67.80;17.90;100897;;;;562396;251;24164;-79
2022/05/16 11:42:00;;;;;;;5.17;2.50;;;18.50;68.70;17.70;100901;;;;567222;250;24099;-79
2022/05/16 11:44:55;;;;;;;4.10;2.63;;;18.20;69.60;17.60;100900;;;;577067;246;24108;-79
2022/05/16 11:47:27;;;;;;;4.17;2.23;;;18.20;69.50;17.50;100891;;;;568717;248;24130;-80
2022/05/16 11:50:16;;;;;;;5.47;2.63;;;18.10;69.90;17.50;100899;;;;562376;251;24131;-80
2022/05/16 11:52:53;;;;;;;5.03;2.27;;;18.10;70.50;17.50;100901;;;;562569;251;24090;-78